Time;durP1;ratioP1;P1;durP2;ratioP2;P2;SDS_P1;SDS_P2;PMS_P1;PMS_P2;Temp;Humidity;BMP_temperature;BMP_pressure;BME280_temperature;BME280_humidity;BME280_pressure;Samples;Min_cycle;Max_cycle;Signal;HPM_P1;HPM_P2
2024/04/08 00:01:12;;;;;;;7.18;1.00;;;;;;;12.22;70.16;99162.97;5367710;26;20414;-45
2024/04/08 00:03:39;;;;;;;8.50;3.08;;;;;;;12.21;70.24;99161.28;5374914;26;20050;-46
2024/04/08 00:06:06;;;;;;;8.90;1.88;;;;;;;12.19;70.30;99160.44;5374114;26;20010;-45
2024/04/08 00:08:35;;;;;;;18.02;3.10;;;;;;;12.18;70.39;99156.16;5372040;26;20005;-48
2024/04/08 00:11:05;;;;;;;10.35;3.00;;;;;;;12.08;70.98;99169.34;5374229;26;20023;-46
2024/04/08 00:13:33;;;;;;;10.20;2.35;;;;;;;12.07;70.99;99167.66;5371145;26;20030;-46
2024/04/08 00:16:00;;;;;;;14.65;2.53;;;;;;;12.00;71.14;99170.38;5373572;26;20040;-46
2024/04/08 00:18:27;;;;;;;10.02;2.35;;;;;;;12.00;71.48;99171.25;5357600;26;20018;-45
2024/04/08 00:21:02;;;;;;;12.88;2.00;;;;;;;11.99;71.12;99163.50;5371148;26;20039;-46
2024/04/08 00:23:29;;;;;;;13.88;2.60;;;;;;;12.03;71.00;99160.78;5361193;26;20014;-47
2024/04/08 00:25:56;;;;;;;8.75;1.58;;;;;;;11.99;71.12;99174.69;5371026;26;20336;-46
2024/04/08 00:28:23;;;;;;;3.75;1.73;;;;;;;11.97;71.01;99171.31;5368148;26;20081;-46
2024/04/08 00:30:49;;;;;;;9.55;3.53;;;;;;;11.93;71.32;99164.47;5373313;26;20000;-47
2024/04/08 00:33:16;;;;;;;7.35;2.47;;;;;;;11.97;71.21;99168.72;5372260;26;20004;-47
2024/04/08 00:35:43;;;;;;;14.07;3.05;;;;;;;11.97;71.35;99160.94;5366513;26;20008;-45
2024/04/08 00:38:10;;;;;;;8.73;1.83;;;;;;;11.98;71.46;99167.81;5380972;26;20382;-47
2024/04/08 00:40:37;;;;;;;11.55;3.25;;;;;;;11.98;71.32;99165.22;5372063;26;20000;-45
2024/04/08 00:43:07;;;;;;;11.90;2.63;;;;;;;11.93;71.61;99169.66;5366337;26;20787;-46
2024/04/08 00:45:36;;;;;;;9.95;1.48;;;;;;;11.93;71.59;99165.31;5367898;26;20512;-45
2024/04/08 00:48:04;;;;;;;7.03;2.50;;;;;;;11.91;71.64;99153.28;5372000;26;20012;-45
2024/04/08 00:50:32;;;;;;;7.55;2.17;;;;;;;11.85;71.61;99150.84;5366088;26;20008;-45
2024/04/08 00:52:58;;;;;;;12.55;3.05;;;;;;;11.88;71.68;99150.75;5374574;26;20004;-44
2024/04/08 00:55:27;;;;;;;6.72;2.70;;;;;;;11.91;71.49;99142.88;5367219;26;20074;-46
2024/04/08 00:57:56;;;;;;;10.20;2.25;;;;;;;11.91;71.17;99146.34;5371202;26;20020;-46
2024/04/08 01:00:24;;;;;;;11.88;3.47;;;;;;;11.88;71.47;99150.75;5365807;26;20113;-45
2024/04/08 01:02:52;;;;;;;3.20;1.63;;;;;;;11.86;71.34;99147.34;5357463;26;19996;-47
2024/04/08 01:05:19;;;;;;;5.15;1.80;;;;;;;11.78;71.72;99148.38;5370176;26;20022;-47
2024/04/08 01:07:46;;;;;;;9.23;2.75;;;;;;;11.78;71.59;99150.97;5369129;26;20464;-45
2024/04/08 01:10:13;;;;;;;10.85;1.45;;;;;;;11.76;71.68;99151.88;5373129;26;20373;-47
2024/04/08 01:12:40;;;;;;;3.88;2.03;;;;;;;11.76;71.70;99151.88;5364584;26;20073;-45
2024/04/08 01:15:07;;;;;;;11.40;2.58;;;;;;;11.78;71.76;99148.38;5367772;26;20004;-47
2024/04/08 01:17:34;;;;;;;13.65;3.30;;;;;;;11.82;71.45;99146.53;5373218;26;20090;-44
2024/04/08 01:20:01;;;;;;;12.32;2.70;;;;;;;11.84;71.35;99149.97;5364508;26;20012;-50
2024/04/08 01:22:31;;;;;;;5.80;2.90;;;;;;;11.85;71.17;99148.25;5378908;26;20032;-45
2024/04/08 01:24:58;;;;;;;12.10;2.45;;;;;;;11.83;71.12;99138.72;5366060;26;20022;-52
2024/04/08 01:27:26;;;;;;;7.13;2.60;;;;;;;11.81;71.33;99140.53;5372181;26;20019;-46
2024/04/08 01:29:53;;;;;;;11.02;3.33;;;;;;;11.83;71.11;99143.91;5370681;26;20004;-51
2024/04/08 01:32:20;;;;;;;7.65;2.38;;;;;;;11.85;71.19;99146.47;5369301;26;20024;-49
2024/04/08 01:34:47;;;;;;;7.68;2.30;;;;;;;11.81;71.20;99148.28;5362691;26;20012;-48
2024/04/08 01:37:14;;;;;;;7.10;2.38;;;;;;;11.77;71.27;99143.19;5355555;26;20008;-45
2024/04/08 01:39:40;;;;;;;9.27;2.30;;;;;;;11.76;71.38;99147.53;5361996;26;20012;-51
2024/04/08 01:42:07;;;;;;;10.52;3.03;;;;;;;11.75;71.41;99140.63;5367395;26;20005;-48
2024/04/08 01:44:34;;;;;;;9.50;3.42;;;;;;;11.72;71.59;99135.50;5340041;26;20004;-46
2024/04/08 01:47:01;;;;;;;8.32;1.20;;;;;;;11.73;71.58;99137.25;5380441;26;20330;-49
2024/04/08 01:49:28;;;;;;;9.55;3.30;;;;;;;11.72;71.65;99134.69;5361955;26;20476;-47
2024/04/08 01:51:56;;;;;;;8.85;3.65;;;;;;;11.71;71.77;99133.81;5364144;26;19996;-51
2024/04/08 01:54:22;;;;;;;12.82;2.10;;;;;;;11.63;72.17;99127.94;5366651;26;20453;-46
2024/04/08 01:56:49;;;;;;;11.70;2.05;;;;;;;11.66;71.65;99114.91;5369736;26;20008;-47
2024/04/08 01:59:16;;;;;;;9.10;2.50;;;;;;;11.62;71.70;99118.47;5348959;26;20083;-46
2024/04/08 02:01:43;;;;;;;7.53;2.42;;;;;;;11.57;71.98;99116.84;5359048;26;20070;-46
2024/04/08 02:04:10;;;;;;;9.45;2.58;;;;;;;11.55;71.77;99103.03;5360963;26;20017;-48
2024/04/08 02:06:36;;;;;;;8.80;2.17;;;;;;;11.51;71.83;99103.13;5369040;26;20000;-48
2024/04/08 02:09:03;;;;;;;5.88;2.58;;;;;;;11.44;72.14;99105.00;5371515;26;20101;-46
2024/04/08 02:11:30;;;;;;;11.80;2.20;;;;;;;11.40;72.31;99099.03;5369228;26;20012;-47
2024/04/08 02:13:57;;;;;;;13.48;2.83;;;;;;;11.43;71.87;99108.50;5371919;26;20004;-45
2024/04/08 02:16:23;;;;;;;10.70;2.28;;;;;;;11.40;71.89;99114.59;5354748;26;20017;-47
2024/04/08 02:18:51;;;;;;;14.77;2.58;;;;;;;11.39;72.26;99101.66;5361187;26;20004;-48
2024/04/08 02:21:17;;;;;;;12.40;2.80;;;;;;;11.32;72.59;99109.56;5366551;26;20126;-48
2024/04/08 02:23:45;;;;;;;8.98;2.15;;;;;;;11.34;72.52;99103.50;5385045;26;20010;-45
2024/04/08 02:26:12;;;;;;;7.45;2.63;;;;;;;11.35;72.47;99113.00;5375601;26;20019;-47
2024/04/08 02:28:38;;;;;;;11.52;3.00;;;;;;;11.26;73.03;99104.53;5364631;26;20011;-46
2024/04/08 02:31:05;;;;;;;11.10;2.92;;;;;;;11.29;72.80;99096.66;5366221;26;20015;-47
2024/04/08 02:33:32;;;;;;;10.15;2.53;;;;;;;11.35;72.54;99095.69;5372667;26;20011;-48
2024/04/08 02:36:03;;;;;;;5.72;2.00;;;;;;;11.35;72.75;99100.03;5373964;26;20464;-46
2024/04/08 02:38:30;;;;;;;17.08;3.08;;;;;;;11.35;72.80;99094.84;5366972;26;20012;-46
2024/04/08 02:40:57;;;;;;;7.65;2.42;;;;;;;11.34;73.00;99090.56;5372836;26;20040;-47
2024/04/08 02:43:24;;;;;;;8.98;2.38;;;;;;;11.37;72.95;99087.88;5365257;26;20020;-47
2024/04/08 02:45:51;;;;;;;18.08;3.60;;;;;;;11.39;72.80;99078.34;5364552;26;20506;-46
2024/04/08 02:48:20;;;;;;;8.85;3.38;;;;;;;11.38;73.15;99084.41;5369373;26;20009;-47
2024/04/08 02:50:47;;;;;;;13.10;3.38;;;;;;;11.37;72.91;99069.72;5360964;26;20017;-45
2024/04/08 02:53:14;;;;;;;14.75;3.80;;;;;;;11.35;72.82;99064.56;5370343;26;20007;-51
2024/04/08 02:55:41;;;;;;;7.97;2.03;;;;;;;11.35;72.92;99068.91;5371799;26;20000;-50
2024/04/08 02:58:08;;;;;;;10.18;1.38;;;;;;;11.32;72.83;99072.44;5370125;26;20226;-48
2024/04/08 03:00:38;;;;;;;14.68;3.10;;;;;;;11.31;72.69;99078.47;5371320;26;20085;-51
2024/04/08 03:03:06;;;;;;;6.72;2.50;;;;;;;11.26;73.06;99078.59;5364688;26;20000;-50
2024/04/08 03:05:33;;;;;;;7.43;2.38;;;;;;;11.28;72.90;99079.41;5366567;26;20020;-48
2024/04/08 03:08:00;;;;;;;8.70;3.00;;;;;;;11.32;72.82;99080.22;5364239;26;20481;-49
2024/04/08 03:10:27;;;;;;;7.93;2.17;;;;;;;11.29;73.12;99065.56;5371928;26;20123;-46
2024/04/08 03:12:53;;;;;;;9.30;2.70;;;;;;;11.30;73.26;99059.50;5365851;26;20089;-46
2024/04/08 03:15:20;;;;;;;11.10;2.88;;;;;;;11.29;73.06;99060.38;5369889;26;20008;-48
2024/04/08 03:17:47;;;;;;;11.43;3.63;;;;;;;11.29;73.22;99055.19;5370925;26;20007;-47
2024/04/08 03:20:14;;;;;;;7.63;2.92;;;;;;;11.30;73.34;99056.91;5364173;26;20009;-46
2024/04/08 03:22:40;;;;;;;9.85;2.42;;;;;;;11.26;73.61;99054.41;5362369;26;20013;-47
2024/04/08 03:25:07;;;;;;;9.30;2.63;;;;;;;11.28;73.14;99053.47;5366573;26;20027;-50
2024/04/08 03:27:34;;;;;;;11.05;2.42;;;;;;;11.26;73.41;99044.91;5371948;26;20011;-48
2024/04/08 03:30:01;;;;;;;10.30;2.33;;;;;;;11.22;73.33;99035.50;5367162;26;20469;-48
2024/04/08 03:32:28;;;;;;;7.38;3.30;;;;;;;11.18;73.34;99041.63;5368048;26;20008;-47
2024/04/08 03:34:55;;;;;;;11.82;2.05;;;;;;;11.15;73.58;99036.50;5369223;26;20008;-46
2024/04/08 03:37:29;;;;;;;9.40;2.95;;;;;;;11.12;73.84;99040.03;5353025;26;20005;-46
2024/04/08 03:39:55;;;;;;;8.85;1.05;;;;;;;11.07;74.01;99039.25;5363546;26;20544;-47
2024/04/08 03:42:22;;;;;;;8.98;2.65;;;;;;;11.08;74.15;99045.28;5362044;26;20008;-47
2024/04/08 03:44:49;;;;;;;8.57;2.95;;;;;;;11.09;74.13;99041.81;5374956;26;20012;-48
2024/04/08 03:47:16;;;;;;;4.22;3.17;;;;;;;11.08;74.07;99042.69;5366010;26;20385;-47
2024/04/08 03:49:44;;;;;;;9.95;2.97;;;;;;;11.10;73.93;99035.72;5364108;26;20576;-46
2024/04/08 03:52:10;;;;;;;13.20;2.35;;;;;;;11.09;74.11;99036.63;5357186;26;20016;-48
2024/04/08 03:54:38;;;;;;;6.88;2.25;;;;;;;11.07;73.82;99030.63;5362013;26;20462;-47
2024/04/08 03:57:05;;;;;;;7.70;2.10;;;;;;;10.98;74.44;99029.91;5372662;26;20020;-46
2024/04/08 03:59:32;;;;;;;5.95;1.92;;;;;;;10.98;74.33;99027.31;5374117;26;20079;-58
2024/04/08 04:01:58;;;;;;;7.93;2.28;;;;;;;10.94;74.52;99023.09;5366594;26;20040;-50
2024/04/08 04:04:25;;;;;;;12.55;3.90;;;;;;;10.91;74.85;99028.38;5374440;26;20049;-48
2024/04/08 04:06:52;;;;;;;9.38;2.45;;;;;;;10.90;74.89;99035.28;5372299;26;20024;-49
2024/04/08 04:09:19;;;;;;;6.05;2.40;;;;;;;10.87;74.90;99021.50;5371298;26;20086;-50
2024/04/08 04:11:45;;;;;;;6.03;2.25;;;;;;;10.78;75.63;99033.78;5373572;26;20004;-50
2024/04/08 04:14:12;;;;;;;7.85;2.05;;;;;;;10.76;75.68;99035.56;5367608;26;20015;-49
2024/04/08 04:16:39;;;;;;;7.32;2.78;;;;;;;10.77;75.54;99044.16;5371297;26;20411;-48
2024/04/08 04:19:06;;;;;;;8.30;2.55;;;;;;;10.78;75.26;99049.31;5375167;26;20051;-47
2024/04/08 04:21:32;;;;;;;10.35;2.92;;;;;;;10.77;75.55;99050.22;5374081;26;20000;-45
2024/04/08 04:23:59;;;;;;;9.15;2.22;;;;;;;10.79;75.30;99051.03;5369108;26;20027;-47
2024/04/08 04:26:26;;;;;;;11.70;2.50;;;;;;;10.73;75.83;99051.16;5351105;26;20791;-47
2024/04/08 04:28:52;;;;;;;9.68;1.63;;;;;;;10.71;75.97;99063.25;5367632;26;20465;-47
2024/04/08 04:31:19;;;;;;;8.80;1.83;;;;;;;10.72;75.79;99070.16;5359543;26;20020;-47
2024/04/08 04:33:46;;;;;;;12.10;2.20;;;;;;;10.69;75.93;99070.22;5372853;26;20457;-48
2024/04/08 04:36:13;;;;;;;16.90;1.58;;;;;;;10.65;76.15;99081.53;5376913;26;20477;-46
2024/04/08 04:38:39;;;;;;;14.60;2.70;;;;;;;10.62;76.38;99089.34;5368992;26;20032;-47
2024/04/08 04:41:06;;;;;;;14.32;2.53;;;;;;;10.67;76.02;99085.78;5369362;26;20011;-48
2024/04/08 04:43:34;;;;;;;6.88;2.10;;;;;;;10.64;76.33;99083.25;5369622;26;20007;-48
2024/04/08 04:46:01;;;;;;;2.28;1.95;;;;;;;10.63;76.23;99085.88;5363988;26;20044;-48
2024/04/08 04:48:27;;;;;;;6.00;2.47;;;;;;;10.63;76.20;99086.72;5366435;26;20057;-47
2024/04/08 04:50:54;;;;;;;6.50;2.55;;;;;;;10.63;76.49;99091.03;5362422;26;20009;-49
2024/04/08 04:53:21;;;;;;;13.15;2.50;;;;;;;10.60;76.50;99091.13;5372735;26;20001;-46
2024/04/08 04:55:53;;;;;;;8.30;2.67;;;;;;;10.65;75.95;99089.28;5364689;26;20016;-46
2024/04/08 04:58:21;;;;;;;11.90;3.03;;;;;;;10.59;76.51;99094.56;5361189;26;20436;-47
2024/04/08 05:00:49;;;;;;;10.18;2.85;;;;;;;10.62;76.34;99089.34;5359793;26;20496;-45
2024/04/08 05:03:17;;;;;;;5.22;2.38;;;;;;;10.58;76.49;99083.38;5372476;26;20063;-48
2024/04/08 05:05:52;;;;;;;11.80;2.78;;;;;;;10.54;77.04;99087.75;5371786;26;20489;-48
2024/04/08 05:08:19;;;;;;;6.38;2.38;;;;;;;10.58;76.76;99088.56;5372203;26;20107;-47
2024/04/08 05:10:45;;;;;;;7.93;2.10;;;;;;;10.59;76.98;99091.97;5373696;26;20028;-46
2024/04/08 05:13:14;;;;;;;14.18;1.50;;;;;;;10.60;76.91;99080.75;5369010;26;20337;-45
2024/04/08 05:15:40;;;;;;;7.80;2.63;;;;;;;10.59;76.85;99084.22;5356409;26;20040;-47
2024/04/08 05:18:07;;;;;;;7.95;1.75;;;;;;;10.61;76.77;99083.28;5364616;26;20023;-48
2024/04/08 05:20:34;;;;;;;6.32;2.47;;;;;;;10.58;76.83;99077.34;5360032;26;20086;-46
2024/04/08 05:23:01;;;;;;;5.15;2.13;;;;;;;10.61;76.84;99079.88;5368440;26;20008;-48
2024/04/08 05:25:28;;;;;;;7.20;2.35;;;;;;;10.57;77.05;99080.81;5371816;26;20033;-47
2024/04/08 05:27:55;;;;;;;7.25;3.00;;;;;;;10.59;76.90;99076.44;5365130;26;20000;-46
2024/04/08 05:30:22;;;;;;;7.45;2.20;;;;;;;10.62;76.91;99089.34;5368844;26;20078;-48
2024/04/08 05:32:48;;;;;;;5.22;2.05;;;;;;;10.59;77.45;99099.75;5363842;26;20085;-47
2024/04/08 05:35:15;;;;;;;4.63;1.65;;;;;;;10.57;77.75;99081.66;5368265;26;20131;-47
2024/04/08 05:37:42;;;;;;;4.50;2.45;;;;;;;10.60;77.40;99080.75;5360909;26;20019;-48
2024/04/08 05:40:13;;;;;;;9.68;2.13;;;;;;;10.59;77.39;99073.84;5367228;26;20457;-48
2024/04/08 05:42:40;;;;;;;7.65;3.30;;;;;;;10.48;77.94;99067.16;5369446;26;20000;-46
2024/04/08 05:45:07;;;;;;;4.65;2.10;;;;;;;10.51;77.77;99077.44;5363320;26;20004;-45
2024/04/08 05:47:34;;;;;;;9.95;2.40;;;;;;;10.49;77.88;99068.84;5366660;26;20011;-48
2024/04/08 05:50:00;;;;;;;8.13;3.25;;;;;;;10.50;77.98;99070.56;5368580;26;20000;-47
2024/04/08 05:52:27;;;;;;;6.65;2.00;;;;;;;10.54;77.49;99072.22;5360997;26;20020;-46
2024/04/08 05:54:54;;;;;;;12.20;2.85;;;;;;;10.60;77.25;99065.22;5360754;26;20081;-47
2024/04/08 05:57:21;;;;;;;9.50;2.85;;;;;;;10.57;77.04;99075.63;5370023;26;20456;-46
2024/04/08 05:59:48;;;;;;;11.95;3.67;;;;;;;10.53;77.38;99074.81;5366162;26;20093;-48
2024/04/08 06:02:15;;;;;;;8.50;1.50;;;;;;;10.59;76.83;99074.72;5357336;26;20349;-47
2024/04/08 06:04:41;;;;;;;7.32;2.15;;;;;;;10.59;77.09;99084.22;5357625;26;20008;-50
2024/04/08 06:07:08;;;;;;;6.55;2.13;;;;;;;10.58;77.00;99079.94;5367135;26;20012;-50
2024/04/08 06:09:35;;;;;;;6.22;1.90;;;;;;;10.62;76.60;99084.16;5371768;26;20085;-49
2024/04/08 06:12:02;;;;;;;9.45;2.55;;;;;;;10.63;76.50;99080.69;5368015;26;20018;-49
2024/04/08 06:14:29;;;;;;;9.93;2.45;;;;;;;10.68;76.22;99084.06;5364097;26;20092;-50
2024/04/08 06:16:59;;;;;;;10.13;2.05;;;;;;;10.69;76.46;99088.34;5370360;26;20027;-51
2024/04/08 06:19:25;;;;;;;;;;;;;;;10.59;76.69;99099.75;5368392;26;20007;-51
2024/04/08 06:21:52;;;;;;;8.38;2.35;;;;;;;10.69;75.85;99100.44;5370810;26;20359;-48
2024/04/08 06:24:20;;;;;;;5.72;2.58;;;;;;;10.70;76.16;99097.81;5371229;26;20004;-48
2024/04/08 06:26:46;;;;;;;7.43;2.17;;;;;;;10.74;75.65;99099.47;5365447;26;20055;-47
2024/04/08 06:29:13;;;;;;;7.50;2.92;;;;;;;10.76;75.81;99086.50;5343816;26;20037;-47
2024/04/08 06:31:40;;;;;;;8.45;1.95;;;;;;;10.74;75.75;99078.75;5359153;26;20127;-47
2024/04/08 06:34:07;;;;;;;11.75;3.05;;;;;;;10.75;75.79;99075.31;5354378;26;20092;-55
2024/04/08 06:36:35;;;;;;;8.00;2.28;;;;;;;10.77;75.82;99075.25;5365253;26;20510;-48
2024/04/08 06:39:02;;;;;;;5.40;1.33;;;;;;;10.71;76.28;99073.63;5361185;26;20000;-49
2024/04/08 06:41:29;;;;;;;7.90;2.13;;;;;;;10.73;76.33;99065.81;5345664;26;20021;-48
2024/04/08 06:43:56;;;;;;;9.68;2.30;;;;;;;10.72;76.30;99075.34;5360117;26;20005;-49
2024/04/08 06:46:23;;;;;;;4.85;1.83;;;;;;;10.68;76.69;99073.72;5351617;26;20005;-50
2024/04/08 06:48:49;;;;;;;11.73;2.67;;;;;;;10.68;76.81;99076.28;5347067;26;20015;-49
2024/04/08 06:51:16;;;;;;;8.48;2.10;;;;;;;10.70;76.76;99081.44;5359944;26;20634;-46
2024/04/08 06:53:43;;;;;;;10.75;2.47;;;;;;;10.77;76.30;99089.06;5357792;26;20016;-48
2024/04/08 06:56:10;;;;;;;6.22;2.03;;;;;;;10.77;76.54;99083.00;5347046;26;20000;-47
2024/04/08 06:58:36;;;;;;;9.02;2.25;;;;;;;10.82;76.52;99086.38;5340358;26;20009;-49
2024/04/08 07:01:03;;;;;;;7.78;2.38;;;;;;;10.84;76.39;99088.94;5340689;26;24526;-46
2024/04/08 07:03:30;;;;;;;10.52;3.17;;;;;;;10.87;76.50;99086.28;5346524;26;20020;-49
2024/04/08 07:05:57;;;;;;;9.57;2.05;;;;;;;10.85;76.51;99080.28;5339837;26;20021;-47
2024/04/08 07:08:24;;;;;;;11.45;2.97;;;;;;;10.88;76.35;99088.00;5352847;26;20474;-47
2024/04/08 07:10:51;;;;;;;12.75;1.92;;;;;;;10.99;76.21;99092.97;5356542;26;20016;-47
2024/04/08 07:13:18;;;;;;;5.65;2.08;;;;;;;11.03;76.15;99092.88;5352662;26;20005;-46
2024/04/08 07:15:54;;;;;;;12.60;2.40;;;;;;;11.11;76.06;99097.06;5356366;26;20691;-46
2024/04/08 07:18:21;;;;;;;4.43;2.20;;;;;;;11.21;75.84;99092.53;5355733;26;20004;-47
2024/04/08 07:20:48;;;;;;;2.35;1.77;;;;;;;11.25;75.64;99089.00;5352175;26;20114;-47
2024/04/08 07:23:15;;;;;;;9.45;2.35;;;;;;;11.32;75.45;99094.00;5348034;26;20011;-46
2024/04/08 07:25:42;;;;;;;5.00;2.50;;;;;;;11.41;75.52;99092.09;5366518;26;20004;-46
2024/04/08 07:28:09;;;;;;;10.27;1.42;;;;;;;11.47;75.34;99094.56;5362652;26;20565;-46
2024/04/08 07:30:36;;;;;;;8.80;3.15;;;;;;;11.52;75.26;99100.50;5361651;26;20079;-47
2024/04/08 07:33:03;;;;;;;9.07;2.67;;;;;;;11.55;74.92;99097.84;5361377;26;20086;-48
2024/04/08 07:35:31;;;;;;;5.45;2.10;;;;;;;11.59;75.00;99105.56;5364237;26;20008;-50
2024/04/08 07:37:57;;;;;;;8.25;2.92;;;;;;;11.51;74.93;99098.81;5369628;26;20505;-46
2024/04/08 07:40:24;;;;;;;12.35;3.50;;;;;;;11.54;74.84;99096.16;5363851;26;20004;-47
2024/04/08 07:42:51;;;;;;;13.02;2.72;;;;;;;11.57;75.08;99106.47;5355866;26;20001;-49
2024/04/08 07:45:18;;;;;;;8.32;2.58;;;;;;;11.77;74.85;99102.56;5361987;26;20461;-50
2024/04/08 07:47:45;;;;;;;8.18;2.15;;;;;;;12.05;74.68;99101.91;5368130;26;20016;-48
2024/04/08 07:50:12;;;;;;;7.93;2.05;;;;;;;12.20;73.98;99100.69;5366090;26;20004;-46
2024/04/08 07:52:39;;;;;;;10.55;3.53;;;;;;;12.38;73.44;99097.69;5358806;26;20092;-48
2024/04/08 07:55:06;;;;;;;8.65;3.40;;;;;;;12.63;72.99;99107.44;5365622;26;20008;-50
2024/04/08 07:57:33;;;;;;;7.90;2.53;;;;;;;12.81;72.63;99106.09;5359475;26;20045;-47
2024/04/08 08:00:00;;;;;;;8.38;2.75;;;;;;;13.00;72.28;99103.84;5375707;26;20011;-48
2024/04/08 08:02:29;;;;;;;4.65;2.40;;;;;;;13.17;71.59;99103.34;5342769;26;20019;-48
2024/04/08 08:04:56;;;;;;;8.10;2.67;;;;;;;13.23;70.71;99112.72;5333959;26;20005;-47
2024/04/08 08:07:22;;;;;;;5.40;2.22;;;;;;;13.35;70.83;99114.13;5341844;26;20009;-49
2024/04/08 08:09:49;;;;;;;5.55;2.97;;;;;;;13.30;70.31;99116.88;5353431;26;20012;-45
2024/04/08 08:12:18;;;;;;;5.45;2.45;;;;;;;13.32;69.75;99112.47;5356950;26;20086;-51
2024/04/08 08:14:46;;;;;;;5.38;2.08;;;;;;;13.32;69.82;99112.47;5353668;26;20021;-46
2024/04/08 08:17:13;;;;;;;4.68;2.85;;;;;;;13.24;69.47;99114.44;5352896;26;20035;-49
2024/04/08 08:19:40;;;;;;;6.40;2.03;;;;;;;13.14;69.53;99103.44;5368314;26;20024;-50
2024/04/08 08:22:07;;;;;;;5.90;2.20;;;;;;;13.07;69.70;99113.16;5359089;26;20005;-46
2024/04/08 08:24:35;;;;;;;8.15;1.95;;;;;;;12.95;70.27;99103.13;5354817;26;20841;-46
2024/04/08 08:27:01;;;;;;;5.82;2.33;;;;;;;12.84;70.20;99109.44;5365629;26;20013;-50
2024/04/08 08:29:29;;;;;;;11.80;2.35;;;;;;;12.85;70.37;99110.31;5364890;26;20008;-49
2024/04/08 08:31:56;;;;;;;12.35;3.03;;;;;;;12.80;70.51;99110.44;5373027;26;20084;-47
2024/04/08 08:34:34;;;;;;;10.15;2.55;;;;;;;12.78;70.37;99103.59;5366755;26;20000;-48
2024/04/08 08:37:00;;;;;;;10.55;2.92;;;;;;;12.82;70.40;99108.66;5369112;26;20012;-49
2024/04/08 08:39:27;;;;;;;12.77;4.03;;;;;;;12.75;70.37;99101.91;5361019;26;20075;-47
2024/04/08 08:41:58;;;;;;;7.22;2.22;;;;;;;12.85;70.58;99108.59;5370527;26;20086;-47
2024/04/08 08:44:28;;;;;;;9.57;1.90;;;;;;;12.80;70.49;99097.44;5361581;26;20358;-51
2024/04/08 08:46:57;;;;;;;7.07;2.80;;;;;;;12.83;70.04;99099.97;5373347;26;20037;-49
2024/04/08 08:49:28;;;;;;;8.02;2.30;;;;;;;12.81;70.00;99091.38;5362544;26;20016;-47
2024/04/08 08:51:56;;;;;;;8.90;3.08;;;;;;;12.90;70.22;99099.81;5351773;26;20013;-48
2024/04/08 08:54:22;;;;;;;13.35;2.45;;;;;;;12.93;70.25;99095.38;5359331;26;20058;-49
2024/04/08 08:56:49;;;;;;;13.77;2.88;;;;;;;12.89;70.50;99093.75;5369172;26;20502;-49
2024/04/08 08:59:16;;;;;;;10.95;2.95;;;;;;;12.93;70.22;99086.69;5360160;26;20012;-48
2024/04/08 09:01:43;;;;;;;4.57;1.30;;;;;;;12.89;70.50;99088.53;5353041;26;20408;-46
2024/04/08 09:04:12;;;;;;;7.20;2.38;;;;;;;12.97;70.40;99083.97;5360416;26;20012;-45
2024/04/08 09:06:51;;;;;;;6.10;1.58;;;;;;;12.99;70.04;99091.75;5373360;26;20762;-46
2024/04/08 09:09:18;;;;;;;6.38;2.17;;;;;;;13.05;70.83;99096.78;5367419;26;20011;-46
2024/04/08 09:11:49;;;;;;;7.15;3.13;;;;;;;13.11;70.03;99101.78;5362922;26;20017;-47
2024/04/08 09:14:16;;;;;;;8.18;1.23;;;;;;;13.15;69.64;99092.16;5368145;26;20486;-46
2024/04/08 09:16:43;;;;;;;12.43;1.75;;;;;;;13.22;69.65;99092.84;5355944;26;20335;-51
2024/04/08 09:19:10;;;;;;;4.38;2.28;;;;;;;13.25;69.66;99074.56;5351630;26;19997;-47
2024/04/08 09:21:37;;;;;;;10.15;2.13;;;;;;;13.29;68.62;99073.56;5356649;26;20023;-51
2024/04/08 09:24:07;;;;;;;;;;;;;;;13.10;68.56;99078.44;5356730;26;20086;-49
2024/04/08 09:26:35;;;;;;;7.43;2.83;;;;;;;13.30;68.36;99077.00;5364938;26;19925;-46
2024/04/08 09:29:02;;;;;;;7.45;2.53;;;;;;;13.42;68.32;99067.97;5363065;26;20052;-47
2024/04/08 09:31:29;;;;;;;7.93;0.93;;;;;;;13.54;68.53;99070.22;5364560;26;20295;-49
2024/04/08 09:33:56;;;;;;;7.88;2.47;;;;;;;13.61;68.08;99056.16;5363075;26;20005;-50
2024/04/08 09:36:24;;;;;;;12.02;2.55;;;;;;;13.61;67.65;99052.69;5354041;26;20004;-47
2024/04/08 09:38:52;;;;;;;7.82;2.67;;;;;;;13.59;67.80;99052.75;5352798;26;20012;-48
2024/04/08 09:41:21;;;;;;;6.75;2.45;;;;;;;13.70;67.63;99048.94;5347538;26;20028;-47
2024/04/08 09:43:48;;;;;;;3.97;0.88;;;;;;;13.79;67.56;99048.66;5359219;26;20522;-50
2024/04/08 09:46:16;;;;;;;8.98;3.20;;;;;;;13.84;67.20;99051.97;5350837;26;20021;-49
2024/04/08 09:48:44;;;;;;;7.78;2.28;;;;;;;13.89;66.76;99051.81;5355236;26;20040;-49
2024/04/08 09:51:13;;;;;;;7.75;2.35;;;;;;;13.93;66.56;99044.75;5354520;26;20005;-49
2024/04/08 09:53:40;;;;;;;2.92;2.55;;;;;;;14.00;66.69;99043.66;5353516;26;20001;-49
2024/04/08 09:56:15;;;;;;;5.78;2.25;;;;;;;14.06;66.33;99046.06;5353681;26;20716;-47
2024/04/08 09:58:52;;;;;;;8.80;2.45;;;;;;;14.12;67.08;99051.03;5350499;26;20032;-49
2024/04/08 10:01:21;;;;;;;4.97;1.60;;;;;;;14.17;66.95;99042.22;5361180;26;20314;-47
2024/04/08 10:03:51;;;;;;;2.63;2.13;;;;;;;14.19;66.56;99048.25;5360659;26;20018;-48
2024/04/08 10:06:19;;;;;;;5.05;2.08;;;;;;;14.20;66.06;99048.19;5369145;26;20091;-47
2024/04/08 10:08:47;;;;;;;4.93;2.47;;;;;;;14.21;66.10;99043.81;5355500;26;20034;-47
2024/04/08 10:11:15;;;;;;;7.47;1.95;;;;;;;14.20;66.08;99047.34;5356404;26;20782;-47
2024/04/08 10:13:48;;;;;;;9.43;2.08;;;;;;;14.23;65.38;99042.03;5361922;26;20023;-47
2024/04/08 10:16:15;;;;;;;5.10;2.42;;;;;;;14.29;65.64;99035.75;5361243;26;20012;-46
2024/04/08 10:18:58;;;;;;;8.43;2.22;;;;;;;14.23;65.16;99031.63;5370694;26;20067;-48
2024/04/08 10:21:26;;;;;;;7.32;2.83;;;;;;;14.30;65.05;99022.69;5359024;26;20004;-47
2024/04/08 10:23:54;;;;;;;8.52;0.70;;;;;;;14.35;64.96;99025.13;5361706;26;20430;-49
2024/04/08 10:26:24;;;;;;;5.38;2.17;;;;;;;14.46;65.52;99022.97;5360034;26;20008;-46
2024/04/08 10:28:51;;;;;;;6.75;2.38;;;;;;;14.43;65.40;99017.91;5360232;26;20020;-51
2024/04/08 10:31:20;;;;;;;9.35;1.85;;;;;;;14.52;65.32;99014.09;5362977;26;20016;-51
2024/04/08 10:33:49;;;;;;;5.28;2.03;;;;;;;14.53;64.58;99014.03;5348010;26;20005;-47
2024/04/08 10:36:16;;;;;;;8.02;2.28;;;;;;;14.56;64.35;99013.09;5354431;26;20004;-62
2024/04/08 10:38:42;;;;;;;3.65;2.15;;;;;;;14.53;63.97;99005.41;5351064;26;20462;-51
2024/04/08 10:41:09;;;;;;;4.20;1.60;;;;;;;14.35;63.63;98999.94;5353078;26;20479;-49
2024/04/08 10:43:37;;;;;;;9.65;2.20;;;;;;;14.37;64.02;99003.34;5355035;26;20009;-51
2024/04/08 10:46:05;;;;;;;4.65;2.20;;;;;;;14.32;64.68;98994.81;5360329;26;20015;-47
2024/04/08 10:48:32;;;;;;;6.45;2.53;;;;;;;14.47;64.50;98992.59;5356708;26;20864;-48
2024/04/08 10:50:59;;;;;;;7.97;2.50;;;;;;;14.56;64.23;98992.25;5341982;26;20045;-50
2024/04/08 10:53:26;;;;;;;5.13;2.45;;;;;;;14.67;64.49;98993.63;5349022;26;20068;-48
2024/04/08 10:55:54;;;;;;;7.22;2.63;;;;;;;14.78;64.71;98991.50;5344812;26;20029;-46
2024/04/08 10:58:21;;;;;;;6.35;2.30;;;;;;;14.84;64.82;98986.06;5361865;26;20425;-48
2024/04/08 11:00:48;;;;;;;4.10;1.08;;;;;;;15.01;64.59;98987.16;5336131;26;20349;-48
2024/04/08 11:03:15;;;;;;;9.80;3.45;;;;;;;15.10;63.99;98975.53;5346711;26;20012;-48
2024/04/08 11:05:42;;;;;;;5.03;1.92;;;;;;;15.24;64.32;98977.63;5358758;26;20008;-50
2024/04/08 11:08:11;;;;;;;8.50;2.83;;;;;;;15.42;64.50;98974.28;5366372;26;20000;-51
2024/04/08 11:10:43;;;;;;;6.18;2.13;;;;;;;15.62;63.71;98975.22;5377118;26;20004;-46
2024/04/08 11:13:12;;;;;;;4.97;2.70;;;;;;;15.79;62.99;98971.94;5364765;26;20052;-50
2024/04/08 11:15:40;;;;;;;4.65;2.15;;;;;;;15.87;62.70;98963.75;5363207;26;19997;-47
2024/04/08 11:18:10;;;;;;;4.68;2.28;;;;;;;15.87;61.60;98961.16;5361160;26;20004;-50
2024/04/08 11:20:37;;;;;;;7.88;2.90;;;;;;;15.70;61.02;98963.63;5374158;26;20764;-48
2024/04/08 11:23:04;;;;;;;8.05;2.40;;;;;;;15.60;60.45;98958.78;5369118;26;20891;-48
2024/04/08 11:25:31;;;;;;;5.88;2.67;;;;;;;15.52;60.88;98955.63;5369368;26;20458;-48
2024/04/08 11:27:59;;;;;;;5.75;3.10;;;;;;;15.52;60.78;98953.03;5351431;26;20009;-47
2024/04/08 11:30:26;;;;;;;2.80;2.03;;;;;;;15.44;60.33;98950.75;5357803;26;20135;-52
2024/04/08 11:32:54;;;;;;;7.10;1.98;;;;;;;15.38;60.33;98954.44;5370785;26;20020;-47